createdAt,value
2019-03-21T00:00:17.101Z,8.18
2019-03-21T00:02:47.142Z,6.67
2019-03-21T00:05:18.210Z,9.90
2019-03-21T00:07:48.293Z,10.95
2019-03-21T00:10:55.909Z,8.65
2019-03-21T00:13:26.000Z,9.03
2019-03-21T00:15:59.377Z,12.37
2019-03-21T00:18:29.471Z,9.40
2019-03-21T00:20:59.502Z,8.73
2019-03-21T00:23:29.504Z,8.18
2019-03-21T00:25:59.552Z,7.90
2019-03-21T00:28:29.618Z,9.50
2019-03-21T00:31:00.045Z,7.85
2019-03-21T00:33:30.052Z,9.08
2019-03-21T00:36:00.179Z,10.50
2019-03-21T00:38:30.264Z,15.03
2019-03-21T00:41:00.434Z,7.62
2019-03-21T00:43:30.475Z,8.53
2019-03-21T00:46:00.659Z,11.08
2019-03-21T00:48:30.707Z,9.73
2019-03-21T00:51:01.282Z,10.32
2019-03-21T00:53:31.382Z,12.40
2019-03-21T00:56:01.560Z,7.85
2019-03-21T00:58:31.672Z,8.78
2019-03-21T01:01:01.850Z,12.80
2019-03-21T01:03:31.977Z,13.28
2019-03-21T01:06:02.157Z,10.23
2019-03-21T01:08:32.219Z,11.88
2019-03-21T01:11:02.290Z,16.97
2019-03-21T01:13:33.975Z,12.60
2019-03-21T01:16:04.272Z,15.65
2019-03-21T01:18:34.761Z,20.82
2019-03-21T01:21:04.881Z,21.60
2019-03-21T01:23:35.137Z,16.50
2019-03-21T01:26:05.631Z,15.18
2019-03-21T01:28:35.622Z,13.15
2019-03-21T01:31:05.689Z,12.10
2019-03-21T01:33:35.901Z,14.50
2019-03-21T01:36:06.154Z,15.05
2019-03-21T01:38:36.324Z,12.18
2019-03-21T01:41:06.405Z,10.45
2019-03-21T01:43:36.471Z,13.65
2019-03-21T01:46:09.210Z,15.20
2019-03-21T01:48:39.401Z,13.43
2019-03-21T01:51:09.423Z,10.72
2019-03-21T01:53:39.514Z,12.70
2019-03-21T01:56:09.544Z,14.95
2019-03-21T01:58:39.605Z,13.80
2019-03-21T02:01:10.085Z,12.07
2019-03-21T02:03:40.162Z,15.15
2019-03-21T02:06:10.186Z,13.88
2019-03-21T02:08:40.396Z,12.40
2019-03-21T02:11:10.410Z,12.13
2019-03-21T02:13:40.449Z,14.80
2019-03-21T02:16:10.584Z,16.27
2019-03-21T02:18:40.808Z,12.13
2019-03-21T02:21:10.820Z,14.98
2019-03-21T02:23:41.017Z,12.98
2019-03-21T02:26:11.289Z,13.80
2019-03-21T02:28:41.353Z,13.25
2019-03-21T02:31:11.496Z,14.30
2019-03-21T02:33:41.677Z,12.33
2019-03-21T02:36:11.946Z,13.70
2019-03-21T02:38:42.161Z,13.53
2019-03-21T02:41:12.621Z,14.03
2019-03-21T02:43:42.750Z,17.62
2019-03-21T02:46:12.871Z,12.00
2019-03-21T02:48:43.083Z,12.13
2019-03-21T02:51:13.106Z,19.55
2019-03-21T02:53:43.231Z,12.37
2019-03-21T02:56:15.362Z,11.03
2019-03-21T02:58:45.824Z,11.00
2019-03-21T03:01:16.149Z,11.75
2019-03-21T03:03:46.243Z,14.90
2019-03-21T03:06:16.240Z,10.03
2019-03-21T03:08:46.378Z,9.25
2019-03-21T03:11:17.011Z,19.57
2019-03-21T03:13:48.382Z,11.85
2019-03-21T03:16:18.756Z,13.53
2019-03-21T03:18:48.876Z,15.63
2019-03-21T03:21:18.965Z,16.45
2019-03-21T03:23:49.438Z,11.28
2019-03-21T03:26:19.591Z,10.65
2019-03-21T03:28:49.976Z,11.65
2019-03-21T03:31:20.048Z,11.18
2019-03-21T03:33:50.308Z,11.33
2019-03-21T03:36:20.403Z,13.65
2019-03-21T03:38:50.568Z,13.40
2019-03-21T03:41:21.056Z,13.75
2019-03-21T03:43:51.475Z,13.05
2019-03-21T03:46:21.605Z,12.03
2019-03-21T03:48:51.653Z,12.40
2019-03-21T03:51:22.044Z,14.10
2019-03-21T03:53:52.082Z,12.90
2019-03-21T03:56:22.100Z,10.63
2019-03-21T03:58:54.180Z,12.45
2019-03-21T04:01:24.411Z,12.82
2019-03-21T04:03:54.576Z,16.90
2019-03-21T04:06:24.712Z,12.53
2019-03-21T04:08:55.243Z,12.00
2019-03-21T04:11:25.419Z,14.18
2019-03-21T04:13:55.841Z,14.53
2019-03-21T04:16:25.821Z,14.50
2019-03-21T04:18:55.984Z,11.93
2019-03-21T04:21:26.272Z,16.00
2019-03-21T04:24:00.010Z,19.37
2019-03-21T04:26:30.980Z,15.58
2019-03-21T04:29:01.114Z,12.73
2019-03-21T04:31:31.237Z,15.38
2019-03-21T04:34:03.037Z,13.83
2019-03-21T04:36:33.127Z,16.05
2019-03-21T04:39:04.615Z,17.23
2019-03-21T04:41:34.766Z,12.05
2019-03-21T04:44:04.805Z,19.48
2019-03-21T04:46:34.946Z,16.73
2019-03-21T04:49:04.986Z,15.72
2019-03-21T04:51:35.038Z,17.25
2019-03-21T04:54:05.117Z,17.32
2019-03-21T04:56:36.431Z,13.78
2019-03-21T04:59:06.513Z,17.07
2019-03-21T05:01:36.521Z,22.93
2019-03-21T05:04:06.718Z,14.33
2019-03-21T05:06:36.812Z,15.32
2019-03-21T05:09:10.378Z,17.45
2019-03-21T05:11:40.610Z,13.65
2019-03-21T05:14:10.729Z,18.40
2019-03-21T05:16:41.080Z,20.77
2019-03-21T05:19:11.217Z,14.13
2019-03-21T05:21:41.388Z,14.87
2019-03-21T05:24:11.625Z,19.85
2019-03-21T05:26:42.074Z,17.77
2019-03-21T05:29:12.468Z,16.12
2019-03-21T05:31:42.493Z,18.25
2019-03-21T05:34:12.664Z,21.07
2019-03-21T05:36:42.836Z,16.85
2019-03-21T05:39:13.044Z,13.05
2019-03-21T05:41:43.218Z,23.92
2019-03-21T05:44:22.156Z,24.18
2019-03-21T05:46:52.505Z,20.90
2019-03-21T05:49:22.545Z,27.52
2019-03-21T05:51:52.625Z,29.18
2019-03-21T05:54:22.733Z,24.75
2019-03-21T05:56:52.822Z,22.55
2019-03-21T05:59:23.275Z,17.60
2019-03-21T06:01:53.314Z,14.78
2019-03-21T06:04:23.474Z,21.15
2019-03-21T06:07:19.337Z,17.85
2019-03-21T06:09:49.413Z,19.27
2019-03-21T06:12:19.699Z,19.02
2019-03-21T06:14:53.677Z,13.80
2019-03-21T06:17:23.797Z,16.57
2019-03-21T06:20:22.615Z,17.87
2019-03-21T06:23:10.404Z,13.28
2019-03-21T06:26:29.749Z,16.23
2019-03-21T06:28:59.734Z,18.30
2019-03-21T06:31:29.811Z,12.73
2019-03-21T06:33:59.914Z,16.20
2019-03-21T06:36:30.017Z,16.12
2019-03-21T06:39:17.900Z,14.63
2019-03-21T06:41:47.974Z,14.95
2019-03-21T06:44:17.981Z,12.58
2019-03-21T06:46:49.689Z,14.05
2019-03-21T06:49:19.949Z,13.22
2019-03-21T06:51:50.038Z,15.13
2019-03-21T06:54:20.461Z,13.05
2019-03-21T06:56:50.521Z,14.65
2019-03-21T06:59:20.745Z,13.28
2019-03-21T07:01:50.843Z,12.20
2019-03-21T07:04:20.838Z,13.72
2019-03-21T07:06:50.842Z,13.55
2019-03-21T07:09:21.031Z,14.33
2019-03-21T07:11:51.128Z,21.27
2019-03-21T07:14:21.210Z,17.42
2019-03-21T07:17:00.124Z,22.37
2019-03-21T07:19:23.553Z,18.57
2019-03-21T07:21:53.795Z,15.48
2019-03-21T07:24:23.860Z,11.97
2019-03-21T07:26:53.969Z,18.65
2019-03-21T07:29:24.029Z,15.98
2019-03-21T07:31:54.249Z,14.10
2019-03-21T07:34:24.312Z,15.58
2019-03-21T07:36:54.405Z,12.90
2019-03-21T07:39:24.428Z,19.40
2019-03-21T07:41:54.596Z,14.10
2019-03-21T07:44:24.824Z,12.20
2019-03-21T07:46:54.842Z,18.07
2019-03-21T07:49:24.936Z,14.43
2019-03-21T07:51:55.027Z,15.23
2019-03-21T07:54:25.557Z,13.30
2019-03-21T07:56:55.718Z,15.10
2019-03-21T07:59:25.825Z,16.17
2019-03-21T08:01:55.911Z,16.70
2019-03-21T08:04:26.070Z,15.60
2019-03-21T08:06:56.258Z,14.17
2019-03-21T08:09:26.585Z,12.50
2019-03-21T08:11:56.710Z,14.87
2019-03-21T08:14:26.827Z,14.87
2019-03-21T08:16:56.961Z,20.33
2019-03-21T08:19:27.698Z,14.50
2019-03-21T08:21:57.822Z,17.13
2019-03-21T08:24:27.936Z,12.87
2019-03-21T08:26:58.190Z,15.00
2019-03-21T08:29:28.182Z,14.70
2019-03-21T08:31:58.207Z,13.97
2019-03-21T08:34:28.324Z,14.43
2019-03-21T08:36:58.384Z,16.10
2019-03-21T08:39:28.754Z,14.13
2019-03-21T08:41:58.943Z,11.90
2019-03-21T08:44:29.034Z,11.93
2019-03-21T08:46:59.411Z,11.57
2019-03-21T08:49:29.479Z,12.00
2019-03-21T08:51:59.621Z,12.73
2019-03-21T08:54:29.826Z,13.50
2019-03-21T08:56:59.921Z,12.63
2019-03-21T08:59:30.045Z,12.87
2019-03-21T09:02:00.539Z,10.37
2019-03-21T09:04:30.977Z,13.03
2019-03-21T09:07:00.996Z,19.03
2019-03-21T09:09:31.038Z,10.43
2019-03-21T09:12:01.129Z,12.60
2019-03-21T09:14:31.231Z,15.23
2019-03-21T09:17:01.233Z,11.50
2019-03-21T09:19:31.280Z,13.00
2019-03-21T09:22:01.375Z,14.77
2019-03-21T09:24:31.417Z,15.30
2019-03-21T09:27:01.537Z,9.30
2019-03-21T09:29:31.561Z,11.97
2019-03-21T09:32:01.637Z,14.30
2019-03-21T09:34:31.677Z,11.17
2019-03-21T09:37:03.993Z,10.93
2019-03-21T09:39:33.591Z,10.53
2019-03-21T09:42:03.670Z,12.20
2019-03-21T09:44:33.764Z,10.90
2019-03-21T09:47:03.765Z,14.00
2019-03-21T09:49:34.174Z,9.63
2019-03-21T09:52:04.584Z,13.50
2019-03-21T09:54:34.782Z,9.60
2019-03-21T09:57:04.817Z,10.80
2019-03-21T09:59:34.831Z,10.63
2019-03-21T10:02:04.869Z,14.17
2019-03-21T10:04:34.937Z,11.63
2019-03-21T10:07:05.278Z,11.80
2019-03-21T10:09:35.346Z,17.03
2019-03-21T10:12:05.471Z,8.80
2019-03-21T10:14:35.637Z,9.00
2019-03-21T10:17:05.665Z,11.90
2019-03-21T10:19:35.783Z,11.97
2019-03-21T10:22:05.832Z,8.57
2019-03-21T10:24:35.986Z,9.73
2019-03-21T10:27:05.989Z,6.13
2019-03-21T10:29:36.346Z,6.83
2019-03-21T10:32:14.112Z,6.47
2019-03-21T10:34:38.512Z,7.80
2019-03-21T10:37:08.888Z,5.60
2019-03-21T10:39:38.872Z,5.27
2019-03-21T10:42:08.973Z,4.67
2019-03-21T10:44:39.031Z,9.13
2019-03-21T10:47:09.093Z,4.53
2019-03-21T10:49:39.177Z,6.73
2019-03-21T10:52:09.123Z,6.27
2019-03-21T10:54:39.229Z,7.60
2019-03-21T10:57:09.334Z,7.47
2019-03-21T10:59:39.729Z,3.33
2019-03-21T11:02:09.760Z,4.80
2019-03-21T11:04:39.788Z,6.30
2019-03-21T11:07:07.643Z,6.93
2019-03-21T11:09:37.692Z,7.40
2019-03-21T11:12:07.755Z,5.40
2019-03-21T11:14:37.749Z,5.30
2019-03-21T11:17:08.077Z,4.73
2019-03-21T11:19:38.108Z,4.97
2019-03-21T11:22:08.107Z,7.50
2019-03-21T11:24:38.117Z,5.80
2019-03-21T11:27:08.116Z,8.03
2019-03-21T11:29:38.226Z,5.83
2019-03-21T11:32:08.209Z,5.90
2019-03-21T11:34:38.188Z,5.77
2019-03-21T11:37:08.307Z,5.50
2019-03-21T11:39:38.383Z,5.30
2019-03-21T11:42:08.432Z,5.60
2019-03-21T11:44:38.469Z,6.67
2019-03-21T11:47:08.625Z,4.30
2019-03-21T11:49:38.608Z,6.07
2019-03-21T11:52:17.732Z,4.47
2019-03-21T11:54:40.433Z,8.37
2019-03-21T11:57:10.486Z,6.93
2019-03-21T11:59:51.048Z,7.20
2019-03-21T12:02:12.378Z,5.20
2019-03-21T12:04:42.889Z,5.10
2019-03-21T12:07:12.912Z,6.40
2019-03-21T12:09:43.145Z,4.43
2019-03-21T12:12:13.494Z,6.23
2019-03-21T12:14:43.531Z,7.10
2019-03-21T12:17:13.617Z,7.10
2019-03-21T12:19:43.652Z,4.90
2019-03-21T12:22:13.692Z,4.00
2019-03-21T12:24:43.711Z,5.27
2019-03-21T12:27:13.676Z,7.83
2019-03-21T12:29:43.838Z,7.80
2019-03-21T12:32:13.877Z,7.37
2019-03-21T12:34:44.181Z,6.70
2019-03-21T12:37:14.484Z,5.30
2019-03-21T12:39:44.920Z,7.70
2019-03-21T12:42:15.336Z,6.33
2019-03-21T12:44:45.381Z,6.13
2019-03-21T12:47:15.436Z,7.00
2019-03-21T12:49:45.533Z,7.33
2019-03-21T12:52:15.901Z,7.23
2019-03-21T12:54:45.983Z,5.50
2019-03-21T12:57:15.969Z,6.20
2019-03-21T12:59:46.060Z,6.10
2019-03-21T13:02:16.137Z,7.97
2019-03-21T13:04:46.288Z,6.67
2019-03-21T13:07:16.825Z,7.23
2019-03-21T13:09:47.317Z,7.93
2019-03-21T13:12:17.681Z,11.60
2019-03-21T13:14:47.725Z,6.67
2019-03-21T13:17:17.776Z,7.97
2019-03-21T13:19:47.808Z,8.07
2019-03-21T13:22:17.825Z,7.30
2019-03-21T13:24:47.887Z,7.07
2019-03-21T13:27:17.972Z,10.83
2019-03-21T13:29:47.998Z,6.20
2019-03-21T13:32:18.080Z,5.17
2019-03-21T13:34:48.110Z,10.07
2019-03-21T13:37:18.186Z,7.53
2019-03-21T13:39:48.213Z,7.73
2019-03-21T13:42:18.522Z,7.50
2019-03-21T13:44:48.497Z,6.83
2019-03-21T13:47:18.574Z,9.23
2019-03-21T13:49:48.990Z,7.93
2019-03-21T13:52:19.023Z,6.30
2019-03-21T13:54:49.042Z,7.80
2019-03-21T13:57:19.137Z,7.13
2019-03-21T13:59:49.349Z,6.97
2019-03-21T14:02:19.357Z,7.10
2019-03-21T14:04:49.521Z,7.70
2019-03-21T14:07:19.602Z,5.80
2019-03-21T14:09:49.625Z,5.73
2019-03-21T14:12:19.690Z,5.33
2019-03-21T14:14:49.794Z,6.20
2019-03-21T14:17:22.092Z,7.70
2019-03-21T14:19:51.673Z,9.13
2019-03-21T14:22:21.862Z,6.97
2019-03-21T14:24:51.896Z,5.90
2019-03-21T14:27:21.979Z,10.40
2019-03-21T14:30:00.802Z,6.27
2019-03-21T14:32:23.819Z,6.70
2019-03-21T14:34:53.861Z,10.10
2019-03-21T14:37:23.988Z,4.83
2019-03-21T14:39:54.317Z,9.20
2019-03-21T14:42:24.406Z,6.30
2019-03-21T14:44:54.580Z,5.50
2019-03-21T14:47:35.641Z,8.27
2019-03-21T14:49:56.929Z,9.53
2019-03-21T14:52:27.152Z,8.20
2019-03-21T14:54:58.790Z,6.97
2019-03-21T14:57:48.247Z,7.27
2019-03-21T15:00:19.122Z,7.03
2019-03-21T15:03:06.852Z,8.00
2019-03-21T15:05:37.128Z,4.70
2019-03-21T15:08:24.821Z,7.20
2019-03-21T15:10:54.934Z,5.63
2019-03-21T15:14:00.575Z,7.03
2019-03-21T15:16:30.868Z,8.20
2019-03-21T15:19:00.964Z,5.80
2019-03-21T15:21:48.573Z,8.03
2019-03-21T15:24:18.695Z,7.23
2019-03-21T15:26:51.117Z,6.93
2019-03-21T15:29:20.642Z,7.80
2019-03-21T15:31:51.415Z,5.40
2019-03-21T15:34:21.890Z,8.67
2019-03-21T15:37:15.214Z,7.80
2019-03-21T15:39:45.426Z,6.33
2019-03-21T15:42:15.578Z,6.80
2019-03-21T15:45:38.840Z,6.60
2019-03-21T15:48:09.283Z,6.10
2019-03-21T15:50:39.409Z,9.20
2019-03-21T15:53:09.440Z,7.40
2019-03-21T15:56:34.550Z,8.47
2019-03-21T15:59:04.666Z,9.80
2019-03-21T16:01:52.173Z,9.23
2019-03-21T16:04:22.742Z,7.43
2019-03-21T16:06:52.813Z,8.80
2019-03-21T16:09:22.937Z,8.07
2019-03-21T16:11:53.774Z,11.40
2019-03-21T16:14:23.898Z,5.77
2019-03-21T16:17:11.753Z,9.37
2019-03-21T16:19:41.800Z,8.80
2019-03-21T16:22:12.126Z,7.63
2019-03-21T16:24:42.255Z,9.03
2019-03-21T16:27:12.294Z,11.03
2019-03-21T16:29:42.313Z,13.00
2019-03-21T16:32:12.809Z,8.30
2019-03-21T16:34:42.868Z,9.10
2019-03-21T16:37:12.965Z,7.93
2019-03-21T16:39:43.180Z,9.60
2019-03-21T16:42:13.295Z,9.37
2019-03-21T16:44:43.454Z,7.00
2019-03-21T16:47:13.933Z,9.77
2019-03-21T16:49:44.103Z,11.00
2019-03-21T16:52:14.178Z,9.60
2019-03-21T16:54:44.233Z,9.60
2019-03-21T16:57:14.385Z,14.43
2019-03-21T16:59:45.582Z,10.33
2019-03-21T17:02:15.875Z,10.30
2019-03-21T17:04:46.030Z,7.57
2019-03-21T17:07:16.204Z,9.60
2019-03-21T17:09:46.408Z,11.70
2019-03-21T17:12:16.767Z,8.20
2019-03-21T17:14:46.968Z,9.13
2019-03-21T17:17:17.189Z,9.17
2019-03-21T17:19:47.389Z,18.77
2019-03-21T17:22:17.878Z,10.00
2019-03-21T17:24:48.006Z,15.30
2019-03-21T17:27:18.265Z,8.63
2019-03-21T17:29:48.438Z,8.83
2019-03-21T17:33:11.838Z,11.13
2019-03-21T17:35:42.055Z,10.60
2019-03-21T17:38:12.330Z,12.30
2019-03-21T17:40:42.425Z,9.90
2019-03-21T17:43:12.706Z,11.03
2019-03-21T17:45:42.768Z,11.70
2019-03-21T17:48:12.955Z,9.07
2019-03-21T17:50:43.186Z,10.20
2019-03-21T17:53:13.408Z,11.00
2019-03-21T17:55:43.600Z,10.00
2019-03-21T17:58:13.897Z,11.23
2019-03-21T18:00:44.064Z,9.87
2019-03-21T18:03:14.380Z,13.90
2019-03-21T18:05:44.538Z,10.47
2019-03-21T18:08:14.595Z,10.40
2019-03-21T18:10:44.782Z,16.00
2019-03-21T18:13:15.099Z,11.43
2019-03-21T18:15:45.146Z,12.40
2019-03-21T18:18:15.385Z,11.13
2019-03-21T18:20:45.634Z,10.87
2019-03-21T18:23:15.706Z,10.60
2019-03-21T18:25:46.040Z,8.77
2019-03-21T18:28:16.051Z,10.40
2019-03-21T18:30:46.281Z,10.03
2019-03-21T18:33:19.104Z,12.63
2019-03-21T18:36:24.489Z,12.53
2019-03-21T18:38:59.535Z,12.30
2019-03-21T18:41:26.762Z,11.03
2019-03-21T18:43:56.959Z,11.50
2019-03-21T18:46:27.177Z,11.63
2019-03-21T18:48:57.279Z,10.70
2019-03-21T18:51:27.737Z,11.90
2019-03-21T18:53:57.908Z,9.43
2019-03-21T18:56:27.969Z,10.17
2019-03-21T18:58:58.096Z,10.83
2019-03-21T19:01:28.206Z,10.40
2019-03-21T19:07:57.133Z,14.20
2019-03-21T19:10:44.964Z,11.07
2019-03-21T19:13:15.144Z,13.10
2019-03-21T19:15:45.483Z,12.53
2019-03-21T19:18:16.121Z,13.67
2019-03-21T19:21:05.046Z,8.40
2019-03-21T19:23:35.162Z,9.20
2019-03-21T19:26:05.470Z,13.23
2019-03-21T19:28:35.643Z,12.27
2019-03-21T19:31:05.842Z,13.27
2019-03-21T19:33:35.940Z,13.30
2019-03-21T19:36:06.191Z,14.13
2019-03-21T19:38:36.394Z,11.87
2019-03-21T19:41:06.626Z,12.70
2019-03-21T19:43:36.813Z,22.30
2019-03-21T19:46:06.942Z,12.53
2019-03-21T19:48:49.376Z,13.67
2019-03-21T19:51:09.327Z,12.73
2019-03-21T19:53:39.436Z,19.40
2019-03-21T19:56:09.585Z,15.43
2019-03-21T19:58:39.792Z,12.65
2019-03-21T20:01:09.987Z,11.70
2019-03-21T20:03:40.151Z,11.50
2019-03-21T20:06:10.285Z,11.10
2019-03-21T20:08:40.469Z,9.78
2019-03-21T20:11:10.591Z,11.25
2019-03-21T20:13:40.945Z,11.10
2019-03-21T20:16:11.106Z,11.35
2019-03-21T20:18:41.228Z,11.15
2019-03-21T20:21:11.493Z,14.63
2019-03-21T20:23:41.909Z,10.40
2019-03-21T20:26:12.059Z,10.30
2019-03-21T20:28:42.253Z,12.57
2019-03-21T20:31:12.447Z,16.37
2019-03-21T20:33:42.613Z,12.18
2019-03-21T20:36:12.710Z,10.48
2019-03-21T20:38:42.964Z,11.03
2019-03-21T20:41:13.146Z,11.08
2019-03-21T20:43:43.290Z,11.57
2019-03-21T20:46:13.722Z,10.65
2019-03-21T20:48:41.888Z,22.00
2019-03-21T20:51:11.963Z,20.00
2019-03-21T20:53:42.241Z,19.40
2019-03-21T20:56:12.349Z,22.52
2019-03-21T20:58:42.488Z,25.82
2019-03-21T21:01:12.901Z,27.10
2019-03-21T21:03:43.083Z,26.10
2019-03-21T21:06:13.280Z,24.57
2019-03-21T21:08:43.430Z,31.60
2019-03-21T21:11:13.582Z,26.37
2019-03-21T21:13:43.724Z,30.30
2019-03-21T21:16:13.918Z,28.45
2019-03-21T21:18:44.130Z,19.82
2019-03-21T21:21:14.488Z,27.58
2019-03-21T21:23:44.648Z,20.97
2019-03-21T21:26:14.871Z,22.30
2019-03-21T21:28:45.068Z,21.07
2019-03-21T21:31:15.275Z,15.80
2019-03-21T21:33:45.375Z,14.03
2019-03-21T21:36:21.943Z,12.45
2019-03-21T21:38:47.498Z,12.43
2019-03-21T21:41:18.705Z,13.83
2019-03-21T21:43:48.967Z,13.70
2019-03-21T21:46:19.042Z,12.98
2019-03-21T21:48:49.410Z,12.60
2019-03-21T21:51:19.508Z,13.50
2019-03-21T21:53:49.631Z,10.10
2019-03-21T21:56:19.765Z,9.93
2019-03-21T21:58:49.854Z,13.78
2019-03-21T22:01:19.851Z,11.90
2019-03-21T22:03:49.968Z,11.50
2019-03-21T22:06:20.184Z,11.03
2019-03-21T22:08:50.443Z,10.05
2019-03-21T22:11:20.549Z,13.13
2019-03-21T22:13:50.827Z,14.25
2019-03-21T22:16:20.915Z,14.58
2019-03-21T22:18:51.054Z,13.65
2019-03-21T22:21:21.417Z,14.07
2019-03-21T22:23:51.507Z,11.55
2019-03-21T22:26:29.680Z,12.95
2019-03-21T22:28:53.342Z,14.18
2019-03-21T22:31:23.381Z,11.12
2019-03-21T22:33:53.549Z,16.62
2019-03-21T22:36:24.046Z,13.48
2019-03-21T22:38:54.235Z,12.85
2019-03-21T22:41:24.436Z,15.30
2019-03-21T22:43:54.662Z,14.53
2019-03-21T22:46:24.708Z,11.80
2019-03-21T22:48:54.953Z,13.05
2019-03-21T22:51:25.506Z,14.68
2019-03-21T22:53:55.582Z,11.40
2019-03-21T22:56:25.702Z,11.08
2019-03-21T22:58:55.869Z,8.90
2019-03-21T23:01:26.253Z,10.00
2019-03-21T23:03:56.269Z,10.82
2019-03-21T23:06:26.468Z,13.95
2019-03-21T23:08:56.736Z,13.60
2019-03-21T23:11:26.830Z,11.25
2019-03-21T23:13:57.176Z,12.13
2019-03-21T23:16:27.257Z,10.45
2019-03-21T23:18:57.400Z,12.20
2019-03-21T23:21:27.461Z,11.68
2019-03-21T23:23:57.637Z,12.15
2019-03-21T23:26:27.741Z,11.63
2019-03-21T23:28:57.769Z,11.75
2019-03-21T23:31:27.821Z,11.20
2019-03-21T23:33:57.946Z,11.03
2019-03-21T23:36:28.289Z,13.00
2019-03-21T23:38:58.334Z,12.37
2019-03-21T23:41:28.761Z,10.00
2019-03-21T23:43:58.829Z,12.80
2019-03-21T23:46:28.898Z,11.53
2019-03-21T23:48:59.368Z,13.13
2019-03-21T23:51:29.397Z,14.65
2019-03-21T23:53:59.400Z,17.50
2019-03-21T23:56:29.574Z,20.27
2019-03-21T23:58:59.655Z,17.60
